createdAt,value
2022-10-12T00:00:49.867Z,14.07
2022-10-12T00:03:17.931Z,14.12
2022-10-12T00:05:45.744Z,14.19
2022-10-12T00:08:14.842Z,14.09
2022-10-12T00:10:43.547Z,14.17
2022-10-12T00:13:12.112Z,14.15
2022-10-12T00:15:43.478Z,14.36
2022-10-12T00:18:11.406Z,14.31
2022-10-12T00:20:39.808Z,14.31
2022-10-12T00:23:07.812Z,14.23
2022-10-12T00:25:40.696Z,14.15
2022-10-12T00:28:09.303Z,14.04
2022-10-12T00:30:42.138Z,14.15
2022-10-12T00:33:09.941Z,14.27
2022-10-12T00:35:37.748Z,14.39
2022-10-12T00:38:05.585Z,14.22
2022-10-12T00:40:33.417Z,14.14
2022-10-12T00:43:02.530Z,13.92
2022-10-12T00:45:30.977Z,13.89
2022-10-12T00:48:01.243Z,14.18
2022-10-12T00:50:32.286Z,14.09
2022-10-12T00:53:04.666Z,14.38
2022-10-12T00:55:38.319Z,14.26
2022-10-12T00:58:09.215Z,14.00
2022-10-12T01:00:39.192Z,14.00
2022-10-12T01:03:08.920Z,13.92
2022-10-12T01:05:37.305Z,13.85
2022-10-12T01:08:05.081Z,14.02
2022-10-12T01:10:33.168Z,14.02
2022-10-12T01:13:01.484Z,14.09
2022-10-12T01:15:35.382Z,14.07
2022-10-12T01:18:09.698Z,14.16
2022-10-12T01:20:53.337Z,14.13
2022-10-12T01:23:46.090Z,14.07
2022-10-12T01:26:54.576Z,14.41
2022-10-12T01:29:51.466Z,14.40
2022-10-12T01:32:23.424Z,14.11
2022-10-12T01:35:01.405Z,13.80
2022-10-12T01:37:39.010Z,13.70
2022-10-12T01:40:13.033Z,13.99
2022-10-12T01:42:43.662Z,14.10
2022-10-12T01:45:13.781Z,14.05
2022-10-12T01:47:48.304Z,13.80
2022-10-12T01:50:18.816Z,13.76
2022-10-12T01:52:57.925Z,13.85
2022-10-12T01:55:38.187Z,14.02
2022-10-12T01:58:26.453Z,14.10
2022-10-12T02:01:01.496Z,14.45
2022-10-12T02:03:37.736Z,14.52
2022-10-12T02:06:09.753Z,14.63
2022-10-12T02:08:43.031Z,14.21
2022-10-12T02:11:13.996Z,14.03
2022-10-12T02:13:45.744Z,14.12
2022-10-12T02:16:19.004Z,14.28
2022-10-12T02:18:54.474Z,14.50
2022-10-12T02:21:28.612Z,14.44
2022-10-12T02:23:59.502Z,14.58
2022-10-12T02:26:29.213Z,14.54
2022-10-12T02:28:59.676Z,14.47
2022-10-12T02:31:36.336Z,14.59
2022-10-12T02:34:11.735Z,14.60
2022-10-12T02:36:47.564Z,14.81
2022-10-12T02:39:21.315Z,14.80
2022-10-12T02:41:52.354Z,14.57
2022-10-12T02:44:23.681Z,14.40
2022-10-12T02:46:54.570Z,14.42
2022-10-12T02:49:25.979Z,14.42
2022-10-12T02:51:55.119Z,14.40
2022-10-12T02:54:22.992Z,14.45
2022-10-12T02:56:51.017Z,14.56
2022-10-12T02:59:20.032Z,14.33
2022-10-12T03:01:49.579Z,14.00
2022-10-12T03:04:17.488Z,14.37
2022-10-12T03:06:46.692Z,14.09
2022-10-12T03:09:18.401Z,13.80
2022-10-12T03:11:46.142Z,13.86
2022-10-12T03:14:16.867Z,13.81
2022-10-12T03:16:46.514Z,14.18
2022-10-12T03:19:14.613Z,14.37
2022-10-12T03:21:42.732Z,13.96
2022-10-12T03:24:12.093Z,13.88
2022-10-12T03:26:39.885Z,13.61
2022-10-12T03:29:08.484Z,13.98
2022-10-12T03:31:36.277Z,14.12
2022-10-12T03:34:05.473Z,14.28
2022-10-12T03:36:33.320Z,14.41
2022-10-12T03:39:01.291Z,14.47
2022-10-12T03:41:30.440Z,14.36
2022-10-12T03:43:58.560Z,14.03
2022-10-12T03:46:26.372Z,14.05
2022-10-12T03:48:56.971Z,13.92
2022-10-12T03:51:24.833Z,13.80
2022-10-12T03:53:52.654Z,13.64
2022-10-12T03:56:20.437Z,13.68
2022-10-12T03:58:52.149Z,13.76
2022-10-12T04:01:20.014Z,13.94
2022-10-12T04:03:48.064Z,13.95
2022-10-12T04:06:15.872Z,14.07
2022-10-12T04:08:48.345Z,13.74
2022-10-12T04:11:20.521Z,13.87
2022-10-12T04:13:49.891Z,14.00
2022-10-12T04:16:17.770Z,13.96
2022-10-12T04:18:45.617Z,13.93
2022-10-12T04:21:15.678Z,13.77
2022-10-12T04:23:43.815Z,13.53
2022-10-12T04:26:11.592Z,13.45
2022-10-12T04:28:41.011Z,13.57
2022-10-12T04:31:10.193Z,13.86
2022-10-12T04:33:37.909Z,14.02
2022-10-12T04:36:05.964Z,14.03
2022-10-12T04:38:33.805Z,14.13
2022-10-12T04:41:01.562Z,14.06
2022-10-12T04:43:29.424Z,13.88
2022-10-12T04:45:58.812Z,13.63
2022-10-12T04:48:28.982Z,13.61
2022-10-12T04:50:56.832Z,13.40
2022-10-12T04:53:24.697Z,13.70
2022-10-12T04:55:56.728Z,13.45
2022-10-12T04:58:24.575Z,13.51
2022-10-12T05:00:52.413Z,13.59
2022-10-12T05:03:20.224Z,13.60
2022-10-12T05:05:49.551Z,13.40
2022-10-12T05:08:17.606Z,13.20
2022-10-12T05:10:46.145Z,13.14
2022-10-12T05:13:14.107Z,13.42
2022-10-12T05:15:42.621Z,13.12
2022-10-12T05:18:10.636Z,13.22
2022-10-12T05:20:38.588Z,13.46
2022-10-12T05:23:07.969Z,13.68
2022-10-12T05:25:36.576Z,13.71
2022-10-12T05:28:04.553Z,13.50
2022-10-12T05:30:32.372Z,13.27
2022-10-12T05:33:03.075Z,13.17
2022-10-12T05:35:31.001Z,13.09
2022-10-12T05:37:58.756Z,12.94
2022-10-12T05:40:28.036Z,12.79
2022-10-12T05:42:55.788Z,12.82
2022-10-12T05:45:23.550Z,12.78
2022-10-12T05:47:51.477Z,12.87
2022-10-12T05:50:19.409Z,12.90
2022-10-12T05:52:47.193Z,12.87
2022-10-12T05:55:15.123Z,12.80
2022-10-12T05:57:47.334Z,12.68
2022-10-12T06:00:17.815Z,12.56
2022-10-12T06:02:45.540Z,12.46
2022-10-12T06:05:13.481Z,12.54
2022-10-12T06:07:41.365Z,12.51
2022-10-12T06:10:10.165Z,12.54
2022-10-12T06:12:38.190Z,12.44
2022-10-12T06:15:09.450Z,12.36
2022-10-12T06:17:37.242Z,12.44
2022-10-12T06:20:05.487Z,12.93
2022-10-12T06:22:33.255Z,13.53
2022-10-12T06:25:01.036Z,13.77
2022-10-12T06:27:28.840Z,13.60
2022-10-12T06:29:56.643Z,13.88
2022-10-12T06:32:25.812Z,14.19
2022-10-12T06:37:48.635Z,14.41
2022-10-12T06:40:13.248Z,14.63
2022-10-12T06:42:41.241Z,14.81
2022-10-12T06:45:09.997Z,14.69
2022-10-12T06:47:39.350Z,14.56
2022-10-12T06:50:09.105Z,14.55
2022-10-12T06:52:37.525Z,14.63
2022-10-12T06:55:07.102Z,14.57
2022-10-12T06:57:35.164Z,14.54
2022-10-12T07:00:06.092Z,14.57
2022-10-12T07:02:40.401Z,14.72
2022-10-12T07:05:13.096Z,14.69
2022-10-12T07:07:41.249Z,14.68
2022-10-12T07:10:10.160Z,14.76
2022-10-12T07:12:39.546Z,14.82
2022-10-12T07:15:08.801Z,14.74
2022-10-12T07:17:37.814Z,14.60
2022-10-12T07:20:07.579Z,14.82
2022-10-12T07:22:37.011Z,14.90
2022-10-12T07:25:05.649Z,14.89
2022-10-12T07:27:33.610Z,14.45
2022-10-12T07:30:01.492Z,14.63
2022-10-12T07:32:29.455Z,14.72
2022-10-12T07:34:57.541Z,14.99
2022-10-12T07:37:25.675Z,15.33
2022-10-12T07:39:57.434Z,15.31
2022-10-12T07:42:26.291Z,15.17
2022-10-12T07:44:54.331Z,14.98
2022-10-12T07:47:22.406Z,14.97
2022-10-12T07:49:50.779Z,14.90
2022-10-12T07:52:18.777Z,15.09
2022-10-12T07:54:46.491Z,15.12
2022-10-12T07:57:15.555Z,15.21
2022-10-12T07:59:43.381Z,15.12
2022-10-12T08:02:12.389Z,15.29
2022-10-12T08:04:40.289Z,15.06
2022-10-12T08:07:08.301Z,15.06
2022-10-12T08:09:36.281Z,15.30
2022-10-12T08:12:04.763Z,15.18
2022-10-12T08:14:34.203Z,15.28
2022-10-12T08:17:02.081Z,15.05
2022-10-12T08:19:35.080Z,15.12
2022-10-12T08:22:03.224Z,14.87
2022-10-12T08:24:30.980Z,14.91
2022-10-12T08:27:01.338Z,14.71
2022-10-12T08:29:29.540Z,14.82
2022-10-12T08:31:58.648Z,14.89
2022-10-12T08:34:26.397Z,15.06
2022-10-12T08:36:54.162Z,14.88
2022-10-12T08:39:22.139Z,14.86
2022-10-12T08:42:00.086Z,14.99
2022-10-12T08:44:48.997Z,14.77
2022-10-12T08:47:22.313Z,14.89
2022-10-12T08:49:51.683Z,14.75
2022-10-12T08:52:29.435Z,14.46
2022-10-12T08:55:03.296Z,14.67
2022-10-12T08:57:31.094Z,14.56
2022-10-12T08:59:59.635Z,14.24
2022-10-12T09:02:51.627Z,14.05
2022-10-12T09:05:28.565Z,14.15
2022-10-12T09:08:01.165Z,14.29
2022-10-12T09:10:44.205Z,14.22
2022-10-12T09:13:23.375Z,14.14
2022-10-12T09:15:53.938Z,14.12
2022-10-12T09:18:31.005Z,14.34
2022-10-12T09:20:59.931Z,14.45
2022-10-12T09:23:31.449Z,14.14
2022-10-12T09:26:08.161Z,13.82
2022-10-12T09:28:40.450Z,14.02
2022-10-12T09:31:19.860Z,13.81
2022-10-12T09:33:52.857Z,13.79
2022-10-12T09:36:23.275Z,13.86
2022-10-12T09:38:52.216Z,14.01
2022-10-12T09:41:23.761Z,14.31
2022-10-12T09:43:55.575Z,14.32
2022-10-12T09:46:31.512Z,14.52
2022-10-12T09:49:01.529Z,14.34
2022-10-12T09:51:31.103Z,14.52
2022-10-12T09:54:03.331Z,14.51
2022-10-12T09:56:39.726Z,14.56
2022-10-12T09:59:18.674Z,14.75
2022-10-12T10:01:59.100Z,15.02
2022-10-12T10:04:30.660Z,15.38
2022-10-12T10:07:14.896Z,15.45
2022-10-12T10:09:42.856Z,15.56
2022-10-12T10:12:22.363Z,15.61
2022-10-12T10:14:51.692Z,15.56
2022-10-12T10:17:26.223Z,15.78
2022-10-12T10:19:57.848Z,15.87
2022-10-12T10:22:26.483Z,15.90
2022-10-12T10:25:00.169Z,15.97
2022-10-12T10:27:32.181Z,16.13
2022-10-12T10:30:29.219Z,16.08
2022-10-12T10:33:18.807Z,15.86
2022-10-12T10:35:58.100Z,15.87
2022-10-12T10:38:26.425Z,15.97
2022-10-12T10:40:58.000Z,15.96
2022-10-12T10:43:29.493Z,16.11
2022-10-12T10:45:59.608Z,16.33
2022-10-12T10:48:30.762Z,16.52
2022-10-12T10:51:02.300Z,16.57
2022-10-12T10:53:43.631Z,16.33
2022-10-12T10:56:15.388Z,16.31
2022-10-12T10:58:47.036Z,16.47
2022-10-12T11:01:22.859Z,16.65
2022-10-12T11:03:57.520Z,16.63
2022-10-12T11:06:37.004Z,16.66
2022-10-12T11:09:12.231Z,16.86
2022-10-12T11:11:41.678Z,17.08
2022-10-12T11:14:16.319Z,17.14
2022-10-12T11:16:47.803Z,16.90
2022-10-12T11:19:25.092Z,16.79
2022-10-12T11:21:57.587Z,16.42
2022-10-12T11:24:30.399Z,16.48
2022-10-12T11:27:03.529Z,16.51
2022-10-12T11:29:31.612Z,16.60
2022-10-12T11:32:04.322Z,16.36
2022-10-12T11:34:38.629Z,16.35
2022-10-12T11:37:19.743Z,16.46
2022-10-12T11:39:51.206Z,16.52
2022-10-12T11:42:29.204Z,16.52
2022-10-12T11:45:00.322Z,16.55
2022-10-12T11:47:35.597Z,16.53
2022-10-12T11:50:07.627Z,16.53
2022-10-12T11:52:42.068Z,16.41
2022-10-12T11:55:28.071Z,16.63
2022-10-12T11:57:59.786Z,16.61
2022-10-12T12:00:37.106Z,16.35
2022-10-12T12:03:18.662Z,16.34
2022-10-12T12:05:46.581Z,16.32
2022-10-12T12:08:24.195Z,16.44
2022-10-12T12:10:54.470Z,16.40
2022-10-12T12:13:27.174Z,16.06
2022-10-12T12:16:34.040Z,16.17
2022-10-12T12:19:15.544Z,16.30
2022-10-12T12:22:12.959Z,16.52
2022-10-12T12:24:52.852Z,16.64
2022-10-12T12:27:23.709Z,16.72
2022-10-12T12:29:53.385Z,16.86
2022-10-12T12:32:21.921Z,16.77
2022-10-12T12:35:00.031Z,16.51
2022-10-12T12:37:35.181Z,16.57
2022-10-12T12:40:05.102Z,16.69
2022-10-12T12:42:34.251Z,16.80
2022-10-12T12:45:42.836Z,16.83
2022-10-12T12:48:11.730Z,16.70
2022-10-12T12:50:41.729Z,16.72
2022-10-12T12:53:18.105Z,16.69
2022-10-12T12:56:03.593Z,16.70
2022-10-12T12:59:02.463Z,16.64
2022-10-12T13:01:50.064Z,16.66
2022-10-12T13:04:35.647Z,17.08
2022-10-12T13:07:37.230Z,17.14
2022-10-12T13:10:20.022Z,17.14
2022-10-12T13:13:10.363Z,16.91
2022-10-12T13:15:54.350Z,16.83
2022-10-12T13:18:56.923Z,16.79
2022-10-12T13:21:27.230Z,16.68
2022-10-12T13:24:04.332Z,16.58
2022-10-12T13:26:33.492Z,16.74
2022-10-12T13:29:07.297Z,16.63
2022-10-12T13:31:39.219Z,16.57
2022-10-12T13:34:13.890Z,16.64
2022-10-12T13:36:54.028Z,16.63
2022-10-12T13:39:23.234Z,16.67
2022-10-12T13:41:54.163Z,16.77
2022-10-12T13:44:26.685Z,16.67
2022-10-12T13:46:57.784Z,16.78
2022-10-12T13:49:28.204Z,16.67
2022-10-12T13:51:57.501Z,16.78
2022-10-12T13:54:27.295Z,16.82
2022-10-12T13:57:00.228Z,17.02
2022-10-12T13:59:33.590Z,17.18
2022-10-12T14:02:02.972Z,17.20
2022-10-12T14:04:32.139Z,17.32
2022-10-12T14:07:02.962Z,17.10
2022-10-12T14:09:40.420Z,16.86
2022-10-12T14:12:09.670Z,16.80
2022-10-12T14:14:40.943Z,17.16
2022-10-12T14:17:08.924Z,17.22
2022-10-12T14:19:45.036Z,17.34
2022-10-12T14:22:13.947Z,17.02
2022-10-12T14:24:41.865Z,16.92
2022-10-12T14:27:09.938Z,17.10
2022-10-12T14:29:45.415Z,17.26
2022-10-12T14:32:39.345Z,17.14
2022-10-12T14:35:23.939Z,17.20
2022-10-12T14:37:53.704Z,17.18
2022-10-12T14:40:38.596Z,17.05
2022-10-12T14:43:09.474Z,16.99
2022-10-12T14:45:42.177Z,17.02
2022-10-12T14:48:15.139Z,16.92
2022-10-12T14:50:44.791Z,17.21
2022-10-12T14:53:14.993Z,17.15
2022-10-12T14:55:43.622Z,16.97
2022-10-12T14:58:15.851Z,16.70
2022-10-12T15:00:45.510Z,16.73
2022-10-12T15:03:13.631Z,16.64
2022-10-12T15:05:41.446Z,16.35
2022-10-12T15:08:12.610Z,16.03
2022-10-12T15:10:40.523Z,15.90
2022-10-12T15:13:08.323Z,15.81
2022-10-12T15:15:40.679Z,15.72
2022-10-12T15:18:09.987Z,15.53
2022-10-12T15:20:38.380Z,15.56
2022-10-12T15:23:07.035Z,15.37
2022-10-12T15:25:42.912Z,15.33
2022-10-12T15:28:10.963Z,15.29
2022-10-12T15:30:52.198Z,15.25
2022-10-12T15:33:28.120Z,15.21
2022-10-12T15:35:56.165Z,15.04
2022-10-12T15:38:24.141Z,15.03
2022-10-12T15:40:52.838Z,15.00
2022-10-12T15:43:20.938Z,15.01
2022-10-12T15:45:49.608Z,14.98
2022-10-12T15:48:17.756Z,14.95
2022-10-12T15:50:49.065Z,14.94
2022-10-12T15:53:18.310Z,14.88
2022-10-12T15:55:46.099Z,14.85
2022-10-12T15:58:14.175Z,14.85
2022-10-12T16:00:42.637Z,14.77
2022-10-12T16:03:24.601Z,14.72
2022-10-12T16:05:55.491Z,14.71
2022-10-12T16:08:23.461Z,14.60
2022-10-12T16:10:51.425Z,14.61
2022-10-12T16:13:19.334Z,14.60
2022-10-12T16:15:47.132Z,14.56
2022-10-12T16:18:15.500Z,14.42
2022-10-12T16:20:46.647Z,14.37
2022-10-12T16:23:23.764Z,14.33
2022-10-12T16:25:51.767Z,14.28
2022-10-12T16:28:22.194Z,14.12
2022-10-12T16:30:50.305Z,14.07
2022-10-12T16:33:19.356Z,14.06
2022-10-12T16:35:47.723Z,14.04
2022-10-12T16:38:15.961Z,14.03
2022-10-12T16:40:45.182Z,13.96
2022-10-12T16:43:13.132Z,14.00
2022-10-12T16:45:40.982Z,13.99
2022-10-12T16:48:08.904Z,13.99
2022-10-12T16:50:40.638Z,13.91
2022-10-12T16:53:09.188Z,13.86
2022-10-12T16:55:39.028Z,13.81
2022-10-12T16:58:08.247Z,13.89
2022-10-12T17:00:36.754Z,13.95
2022-10-12T17:03:04.620Z,13.99
2022-10-12T17:05:32.424Z,14.02
2022-10-12T17:08:00.237Z,13.91
2022-10-12T17:10:28.666Z,13.92
2022-10-12T17:12:56.658Z,13.89
2022-10-12T17:15:25.848Z,13.79
2022-10-12T17:17:54.059Z,13.80
2022-10-12T17:20:21.891Z,13.82
2022-10-12T17:22:49.674Z,13.79
2022-10-12T17:25:17.601Z,13.74
2022-10-12T17:27:45.380Z,13.69
2022-10-12T17:30:13.744Z,13.63
2022-10-12T17:32:42.938Z,13.58
2022-10-12T17:35:11.213Z,13.53
2022-10-12T17:37:39.122Z,13.56
2022-10-12T17:40:11.400Z,13.44
2022-10-12T17:42:39.480Z,13.41
2022-10-12T17:45:08.459Z,13.36
2022-10-12T17:47:36.382Z,13.33
2022-10-12T17:50:06.475Z,13.28
2022-10-12T17:52:39.475Z,13.23
2022-10-12T17:55:19.228Z,13.10
2022-10-12T17:57:55.962Z,13.03
2022-10-12T18:00:23.762Z,12.93
2022-10-12T18:02:51.660Z,12.85
2022-10-12T18:05:21.039Z,12.81
2022-10-12T18:07:48.848Z,12.71
2022-10-12T18:10:16.848Z,12.61
2022-10-12T18:12:45.060Z,12.58
2022-10-12T18:15:12.901Z,12.60
2022-10-12T18:17:40.757Z,12.56
2022-10-12T18:20:09.681Z,12.46
2022-10-12T18:22:38.941Z,12.48
2022-10-12T18:25:07.913Z,12.47
2022-10-12T18:27:35.735Z,12.42
2022-10-12T18:30:03.901Z,12.36
2022-10-12T18:32:31.692Z,12.27
2022-10-12T18:34:59.526Z,12.25
2022-10-12T18:37:27.490Z,12.15
2022-10-12T18:39:56.619Z,12.14
2022-10-12T18:42:24.479Z,12.09
2022-10-12T18:44:52.316Z,12.03
2022-10-12T18:47:24.540Z,11.93
2022-10-12T18:49:55.566Z,11.87
2022-10-12T18:52:23.600Z,11.71
2022-10-12T18:54:51.946Z,11.58
2022-10-12T18:57:21.320Z,11.47
2022-10-12T18:59:53.794Z,11.38
2022-10-12T19:02:21.962Z,11.31
2022-10-12T19:04:50.035Z,11.24
2022-10-12T19:07:18.006Z,11.18
2022-10-12T19:09:48.976Z,11.12
2022-10-12T19:12:21.590Z,10.99
2022-10-12T19:14:49.911Z,10.97
2022-10-12T19:17:17.925Z,10.88
2022-10-12T19:19:48.695Z,10.86
2022-10-12T19:22:17.029Z,10.84
2022-10-12T19:24:45.083Z,10.81
2022-10-12T19:27:12.882Z,10.81
2022-10-12T19:29:45.665Z,10.78
2022-10-12T19:32:14.082Z,10.78
2022-10-12T19:34:42.120Z,10.73
2022-10-12T19:37:09.989Z,10.79
2022-10-12T19:39:37.859Z,10.79
2022-10-12T19:42:06.042Z,10.79
2022-10-12T19:44:33.956Z,10.78
2022-10-12T19:47:03.511Z,10.73
2022-10-12T19:49:36.881Z,10.63
2022-10-12T19:52:06.584Z,10.54
2022-10-12T19:54:36.328Z,10.48
2022-10-12T19:57:04.269Z,10.45
2022-10-12T19:59:32.231Z,10.40
2022-10-12T20:02:00.098Z,10.33
2022-10-12T20:04:32.021Z,10.27
2022-10-12T20:07:00.114Z,10.21
2022-10-12T20:09:28.182Z,10.18
2022-10-12T20:11:56.141Z,10.13
2022-10-12T20:14:25.616Z,10.00
2022-10-12T20:16:55.584Z,9.90
2022-10-12T20:19:23.386Z,9.83
2022-10-12T20:21:52.667Z,9.78
2022-10-12T20:24:20.662Z,9.81
2022-10-12T20:26:48.442Z,9.78
2022-10-12T20:29:16.385Z,9.84
2022-10-12T20:31:44.266Z,9.82
2022-10-12T20:34:14.040Z,9.87
2022-10-12T20:36:41.874Z,9.77
2022-10-12T20:39:11.230Z,9.79
2022-10-12T20:41:40.573Z,9.72
2022-10-12T20:44:10.330Z,9.64
2022-10-12T20:46:38.723Z,9.63
2022-10-12T20:49:06.712Z,9.65
2022-10-12T20:51:36.860Z,9.68
2022-10-12T20:54:06.571Z,9.58
2022-10-12T20:56:35.897Z,9.55
2022-10-12T20:59:03.717Z,9.53
2022-10-12T21:01:31.803Z,9.53
2022-10-12T21:03:59.626Z,9.49
2022-10-12T21:06:29.645Z,9.41
2022-10-12T21:08:58.414Z,9.34
2022-10-12T21:11:26.384Z,9.27
2022-10-12T21:13:56.109Z,9.31
2022-10-12T21:16:24.624Z,9.35
2022-10-12T21:18:55.424Z,9.39
2022-10-12T21:21:23.978Z,9.45
2022-10-12T21:23:54.507Z,9.39
2022-10-12T21:26:24.435Z,9.42
2022-10-12T21:28:52.495Z,9.37
2022-10-12T21:31:22.793Z,9.33
2022-10-12T21:33:51.548Z,9.33
2022-10-12T21:36:21.569Z,9.30
2022-10-12T21:38:50.188Z,9.27
2022-10-12T21:41:19.387Z,9.28
2022-10-12T21:43:48.370Z,9.20
2022-10-12T21:46:23.209Z,9.20
2022-10-12T21:48:51.636Z,9.26
2022-10-12T21:51:21.169Z,9.14
2022-10-12T21:53:49.323Z,9.07
2022-10-12T21:56:19.674Z,9.06
2022-10-12T21:58:47.966Z,9.04
2022-10-12T22:01:17.392Z,9.01
2022-10-12T22:03:48.146Z,9.01
2022-10-12T22:06:17.901Z,9.00
2022-10-12T22:08:46.180Z,8.93
2022-10-12T22:11:16.360Z,8.92
2022-10-12T22:13:44.167Z,8.88
2022-10-12T22:16:14.490Z,8.86
2022-10-12T22:18:42.833Z,8.88
2022-10-12T22:21:15.103Z,9.19
2022-10-12T22:23:43.941Z,10.30
2022-10-12T22:26:14.895Z,10.77
2022-10-12T22:28:54.369Z,10.85
2022-10-12T22:31:24.448Z,10.91
2022-10-12T22:33:52.352Z,10.90
2022-10-12T22:36:21.534Z,10.92
2022-10-12T22:38:49.316Z,10.88
2022-10-12T22:41:18.827Z,10.55
2022-10-12T22:43:50.413Z,10.66
2022-10-12T22:46:19.020Z,10.80
2022-10-12T22:48:47.083Z,10.88
2022-10-12T22:51:18.576Z,11.03
2022-10-12T22:53:47.863Z,11.01
2022-10-12T22:56:17.407Z,10.91
2022-10-12T22:58:46.656Z,10.68
2022-10-12T23:01:16.364Z,10.50
2022-10-12T23:03:45.879Z,10.49
2022-10-12T23:06:16.246Z,10.46
2022-10-12T23:08:44.323Z,10.52
2022-10-12T23:11:16.175Z,10.37
2022-10-12T23:13:44.764Z,10.34
2022-10-12T23:16:16.679Z,10.45
2022-10-12T23:18:44.685Z,10.54
2022-10-12T23:21:14.799Z,10.36
2022-10-12T23:23:44.236Z,10.23
2022-10-12T23:26:15.355Z,10.10
2022-10-12T23:28:43.276Z,9.88
2022-10-12T23:31:19.023Z,9.85
2022-10-12T23:33:47.339Z,9.95
2022-10-12T23:36:17.236Z,9.93
2022-10-12T23:38:46.022Z,10.11
2022-10-12T23:41:15.387Z,10.20
2022-10-12T23:43:43.468Z,10.22
2022-10-12T23:46:13.426Z,10.15
2022-10-12T23:48:42.215Z,10.16
2022-10-12T23:51:10.812Z,10.03
2022-10-12T23:53:39.278Z,10.04
2022-10-12T23:56:07.708Z,10.05
2022-10-12T23:58:36.995Z,10.19
